Aviation Digital Data Service (ADDS)

Output produced by METARs form (2346 UTC 15 February 2019)
found at http://www.aviationweather.gov/metar/data/
 
METAR text: FMEE 152330Z AUTO 18005KT CAVOK 23/20 Q1013 NOSIG
Conditions at: FMEE (ST. DENIS/GILLOT, FR) observed 2330 UTC 15 February 2019
Temperature: 23.0°C (73°F)
Dewpoint: 20.0°C (68°F) [RH = 83%]
Pressure (altimeter): 29.91 inches Hg (1013.0 mb)
Winds: from the S (180 degrees) at 6 MPH (5 knots; 2.6 m/s)
Visibility: 6 or more miles (10+ km)
Ceiling: ceiling and visibility are OK
Clouds: unknown
Weather: no significant weather observed at this time

METAR text: FMEE 152300Z AUTO 18005KT CAVOK 23/19 Q1013 NOSIG
Conditions at: FMEE (ST. DENIS/GILLOT, FR) observed 2300 UTC 15 February 2019
Temperature: 23.0°C (73°F)
Dewpoint: 19.0°C (66°F) [RH = 78%]
Pressure (altimeter): 29.91 inches Hg (1013.0 mb)
Winds: from the S (180 degrees) at 6 MPH (5 knots; 2.6 m/s)
Visibility: 6 or more miles (10+ km)
Ceiling: ceiling and visibility are OK
Clouds: unknown
Weather: no significant weather observed at this time

METAR text: FMEE 152230Z AUTO 19006KT CAVOK 24/19 Q1013 NOSIG
Conditions at: FMEE (ST. DENIS/GILLOT, FR) observed 2230 UTC 15 February 2019
Temperature: 24.0°C (75°F)
Dewpoint: 19.0°C (66°F) [RH = 74%]
Pressure (altimeter): 29.91 inches Hg (1013.0 mb)
Winds: from the S (190 degrees) at 7 MPH (6 knots; 3.1 m/s)
Visibility: 6 or more miles (10+ km)
Ceiling: ceiling and visibility are OK
Clouds: unknown
Weather: no significant weather observed at this time

METAR text: FMEE 152200Z AUTO 18004KT CAVOK 24/19 Q1013 NOSIG
Conditions at: FMEE (ST. DENIS/GILLOT, FR) observed 2200 UTC 15 February 2019
Temperature: 24.0°C (75°F)
Dewpoint: 19.0°C (66°F) [RH = 74%]
Pressure (altimeter): 29.91 inches Hg (1013.0 mb)
Winds: from the S (180 degrees) at 5 MPH (4 knots; 2.1 m/s)
Visibility: 6 or more miles (10+ km)
Ceiling: ceiling and visibility are OK
Clouds: unknown
Weather: no significant weather observed at this time

METAR text: FMEE 152130Z AUTO 18003KT CAVOK 24/20 Q1014 NOSIG
Conditions at: FMEE (ST. DENIS/GILLOT, FR) observed 2130 UTC 15 February 2019
Temperature: 24.0°C (75°F)
Dewpoint: 20.0°C (68°F) [RH = 78%]
Pressure (altimeter): 29.94 inches Hg (1014.0 mb)
Winds: from the S (180 degrees) at 3 MPH (3 knots; 1.5 m/s)
Visibility: 6 or more miles (10+ km)
Ceiling: ceiling and visibility are OK
Clouds: unknown
Weather: no significant weather observed at this time

METAR text: FMEE 152100Z AUTO 17005KT CAVOK 24/20 Q1014 NOSIG
Conditions at: FMEE (ST. DENIS/GILLOT, FR) observed 2100 UTC 15 February 2019
Temperature: 24.0°C (75°F)
Dewpoint: 20.0°C (68°F) [RH = 78%]
Pressure (altimeter): 29.94 inches Hg (1014.0 mb)
Winds: from the S (170 degrees) at 6 MPH (5 knots; 2.6 m/s)
Visibility: 6 or more miles (10+ km)
Ceiling: ceiling and visibility are OK
Clouds: unknown
Weather: no significant weather observed at this time

METAR text: FMEE 152030Z AUTO 17005KT 9999 FEW039 24/20 Q1014 NOSIG
Conditions at: FMEE (ST. DENIS/GILLOT, FR) observed 2030 UTC 15 February 2019
Temperature: 24.0°C (75°F)
Dewpoint: 20.0°C (68°F) [RH = 78%]
Pressure (altimeter): 29.94 inches Hg (1014.0 mb)
Winds: from the S (170 degrees) at 6 MPH (5 knots; 2.6 m/s)
Visibility: 6 or more miles (10+ km)
Ceiling: at least 12,000 feet AGL
Clouds: few clouds at 3900 feet AGL
Weather: no significant weather observed at this time

METAR text: FMEE 152000Z AUTO 17004KT 9999 FEW038 BKN230 24/20 Q1014 NOSIG
Conditions at: FMEE (ST. DENIS/GILLOT, FR) observed 2000 UTC 15 February 2019
Temperature: 24.0°C (75°F)
Dewpoint: 20.0°C (68°F) [RH = 78%]
Pressure (altimeter): 29.94 inches Hg (1014.0 mb)
Winds: from the S (170 degrees) at 5 MPH (4 knots; 2.1 m/s)
Visibility: 6 or more miles (10+ km)
Ceiling: 23000 feet AGL
Clouds: few clouds at 3800 feet AGL
broken clouds at 23000 feet AGL
Weather: no significant weather observed at this time

METAR text: FMEE 151930Z AUTO 19005KT CAVOK 24/20 Q1015 NOSIG
Conditions at: FMEE (ST. DENIS/GILLOT, FR) observed 1930 UTC 15 February 2019
Temperature: 24.0°C (75°F)
Dewpoint: 20.0°C (68°F) [RH = 78%]
Pressure (altimeter): 29.97 inches Hg (1015.0 mb)
Winds: from the S (190 degrees) at 6 MPH (5 knots; 2.6 m/s)
Visibility: 6 or more miles (10+ km)
Ceiling: ceiling and visibility are OK
Clouds: unknown
Weather: no significant weather observed at this time

METAR text: FMEE 151900Z AUTO 17005KT CAVOK 24/20 Q1014 NOSIG
Conditions at: FMEE (ST. DENIS/GILLOT, FR) observed 1900 UTC 15 February 2019
Temperature: 24.0°C (75°F)
Dewpoint: 20.0°C (68°F) [RH = 78%]
Pressure (altimeter): 29.94 inches Hg (1014.0 mb)
Winds: from the S (170 degrees) at 6 MPH (5 knots; 2.6 m/s)
Visibility: 6 or more miles (10+ km)
Ceiling: ceiling and visibility are OK
Clouds: unknown
Weather: no significant weather observed at this time

METAR text: FMEE 151830Z AUTO 17005KT CAVOK 24/21 Q1014 NOSIG
Conditions at: FMEE (ST. DENIS/GILLOT, FR) observed 1830 UTC 15 February 2019
Temperature: 24.0°C (75°F)
Dewpoint: 21.0°C (70°F) [RH = 83%]
Pressure (altimeter): 29.94 inches Hg (1014.0 mb)
Winds: from the S (170 degrees) at 6 MPH (5 knots; 2.6 m/s)
Visibility: 6 or more miles (10+ km)
Ceiling: ceiling and visibility are OK
Clouds: unknown
Weather: no significant weather observed at this time

METAR text: FMEE 151800Z AUTO 18004KT 160V220 CAVOK 25/21 Q1014 NOSIG
Conditions at: FMEE (ST. DENIS/GILLOT, FR) observed 1800 UTC 15 February 2019
Temperature: 25.0°C (77°F)
Dewpoint: 21.0°C (70°F) [RH = 79%]
Pressure (altimeter): 29.94 inches Hg (1014.0 mb)
Winds: from the S (180 degrees) at 5 MPH (4 knots; 2.1 m/s)
Visibility: 6 or more miles (10+ km)
Ceiling: ceiling and visibility are OK
Clouds: unknown
Weather: no significant weather observed at this time

METAR text: FMEE 151730Z AUTO 17004KT 130V200 CAVOK 25/21 Q1014 NOSIG
Conditions at: FMEE (ST. DENIS/GILLOT, FR) observed 1730 UTC 15 February 2019
Temperature: 25.0°C (77°F)
Dewpoint: 21.0°C (70°F) [RH = 79%]
Pressure (altimeter): 29.94 inches Hg (1014.0 mb)
Winds: from the S (170 degrees) at 5 MPH (4 knots; 2.1 m/s)
Visibility: 6 or more miles (10+ km)
Ceiling: ceiling and visibility are OK
Clouds: unknown
Weather: no significant weather observed at this time

METAR text: FMEE 151700Z AUTO 17005KT CAVOK 25/21 Q1014 NOSIG
Conditions at: FMEE (ST. DENIS/GILLOT, FR) observed 1700 UTC 15 February 2019
Temperature: 25.0°C (77°F)
Dewpoint: 21.0°C (70°F) [RH = 79%]
Pressure (altimeter): 29.94 inches Hg (1014.0 mb)
Winds: from the S (170 degrees) at 6 MPH (5 knots; 2.6 m/s)
Visibility: 6 or more miles (10+ km)
Ceiling: ceiling and visibility are OK
Clouds: unknown
Weather: no significant weather observed at this time

METAR text: FMEE 151630Z AUTO 13005KT 9999 FEW039 26/21 Q1014 NOSIG
Conditions at: FMEE (ST. DENIS/GILLOT, FR) observed 1630 UTC 15 February 2019
Temperature: 26.0°C (79°F)
Dewpoint: 21.0°C (70°F) [RH = 74%]
Pressure (altimeter): 29.94 inches Hg (1014.0 mb)
Winds: from the SE (130 degrees) at 6 MPH (5 knots; 2.6 m/s)
Visibility: 6 or more miles (10+ km)
Ceiling: at least 12,000 feet AGL
Clouds: few clouds at 3900 feet AGL
Weather: no significant weather observed at this time

METAR text: FMEE 151600Z AUTO 12004KT 9999 BKN037 BKN056 26/21 Q1013 NOSIG
Conditions at: FMEE (ST. DENIS/GILLOT, FR) observed 1600 UTC 15 February 2019
Temperature: 26.0°C (79°F)
Dewpoint: 21.0°C (70°F) [RH = 74%]
Pressure (altimeter): 29.91 inches Hg (1013.0 mb)
Winds: from the ESE (120 degrees) at 5 MPH (4 knots; 2.1 m/s)
Visibility: 6 or more miles (10+ km)
Ceiling: 3700 feet AGL
Clouds: broken clouds at 3700 feet AGL
broken clouds at 5600 feet AGL
Weather: no significant weather observed at this time

METAR text: FMEE 151530Z AUTO 12004KT 9999 BKN036 BKN045 OVC052 26/21 Q1013 NOSIG
Conditions at: FMEE (ST. DENIS/GILLOT, FR) observed 1530 UTC 15 February 2019
Temperature: 26.0°C (79°F)
Dewpoint: 21.0°C (70°F) [RH = 74%]
Pressure (altimeter): 29.91 inches Hg (1013.0 mb)
Winds: from the ESE (120 degrees) at 5 MPH (4 knots; 2.1 m/s)
Visibility: 6 or more miles (10+ km)
Ceiling: 3600 feet AGL
Clouds: broken clouds at 3600 feet AGL
broken clouds at 4500 feet AGL
overcast cloud deck at 5200 feet AGL
Weather: no significant weather observed at this time

METAR text: FMEE 151500Z AUTO 13006KT 9999 FEW034 BKN040 OVC049 27/21 Q1013 NOSIG
Conditions at: FMEE (ST. DENIS/GILLOT, FR) observed 1500 UTC 15 February 2019
Temperature: 27.0°C (81°F)
Dewpoint: 21.0°C (70°F) [RH = 70%]
Pressure (altimeter): 29.91 inches Hg (1013.0 mb)
Winds: from the SE (130 degrees) at 7 MPH (6 knots; 3.1 m/s)
Visibility: 6 or more miles (10+ km)
Ceiling: 4000 feet AGL
Clouds: few clouds at 3400 feet AGL
broken clouds at 4000 feet AGL
overcast cloud deck at 4900 feet AGL
Weather: no significant weather observed at this time

METAR text: FMEE 151430Z AUTO 12006KT 9999 BKN033 OVC045 27/21 Q1012 NOSIG
Conditions at: FMEE (ST. DENIS/GILLOT, FR) observed 1430 UTC 15 February 2019
Temperature: 27.0°C (81°F)
Dewpoint: 21.0°C (70°F) [RH = 70%]
Pressure (altimeter): 29.88 inches Hg (1012.0 mb)
Winds: from the ESE (120 degrees) at 7 MPH (6 knots; 3.1 m/s)
Visibility: 6 or more miles (10+ km)
Ceiling: 3300 feet AGL
Clouds: broken clouds at 3300 feet AGL
overcast cloud deck at 4500 feet AGL
Weather: no significant weather observed at this time

METAR text: FMEE 151400Z AUTO 10006KT 070V130 9999 OVC033 27/20 Q1012 NOSIG
Conditions at: FMEE (ST. DENIS/GILLOT, FR) observed 1400 UTC 15 February 2019
Temperature: 27.0°C (81°F)
Dewpoint: 20.0°C (68°F) [RH = 66%]
Pressure (altimeter): 29.88 inches Hg (1012.0 mb)
Winds: from the E (100 degrees) at 7 MPH (6 knots; 3.1 m/s)
Visibility: 6 or more miles (10+ km)
Ceiling: 3300 feet AGL
Clouds: overcast cloud deck at 3300 feet AGL
Weather: no significant weather observed at this time

METAR text: FMEE 151330Z AUTO VRB03KT 9999 OVC034 28/20 Q1012 NOSIG
Conditions at: FMEE (ST. DENIS/GILLOT, FR) observed 1330 UTC 15 February 2019
Temperature: 28.0°C (82°F)
Dewpoint: 20.0°C (68°F) [RH = 62%]
Pressure (altimeter): 29.88 inches Hg (1012.0 mb)
Winds: variable direction winds at 3 MPH (3 knots; 1.5 m/s)
Visibility: 6 or more miles (10+ km)
Ceiling: 3400 feet AGL
Clouds: overcast cloud deck at 3400 feet AGL
Weather: no significant weather observed at this time

METAR text: FMEE 151300Z AUTO VRB02KT 9999 BKN034 OVC042 28/20 Q1012 NOSIG
Conditions at: FMEE (ST. DENIS/GILLOT, FR) observed 1300 UTC 15 February 2019
Temperature: 28.0°C (82°F)
Dewpoint: 20.0°C (68°F) [RH = 62%]
Pressure (altimeter): 29.88 inches Hg (1012.0 mb)
Winds: variable direction winds at 2 MPH (2 knots; 1.0 m/s)
Visibility: 6 or more miles (10+ km)
Ceiling: 3400 feet AGL
Clouds: broken clouds at 3400 feet AGL
overcast cloud deck at 4200 feet AGL
Weather: no significant weather observed at this time

METAR text: FMEE 151230Z AUTO VRB03KT 9999 BKN038 BKN049 OVC058 29/20 Q1012 NOSIG
Conditions at: FMEE (ST. DENIS/GILLOT, FR) observed 1230 UTC 15 February 2019
Temperature: 29.0°C (84°F)
Dewpoint: 20.0°C (68°F) [RH = 58%]
Pressure (altimeter): 29.88 inches Hg (1012.0 mb)
Winds: variable direction winds at 3 MPH (3 knots; 1.5 m/s)
Visibility: 6 or more miles (10+ km)
Ceiling: 3800 feet AGL
Clouds: broken clouds at 3800 feet AGL
broken clouds at 4900 feet AGL
overcast cloud deck at 5800 feet AGL
Weather: no significant weather observed at this time

METAR text: FMEE 151200Z AUTO 34004KT 300V020 9999 BKN040 OVC062 29/20 Q1011 NOSIG
Conditions at: FMEE (ST. DENIS/GILLOT, FR) observed 1200 UTC 15 February 2019
Temperature: 29.0°C (84°F)
Dewpoint: 20.0°C (68°F) [RH = 58%]
Pressure (altimeter): 29.85 inches Hg (1011.0 mb)
Winds: from the NNW (340 degrees) at 5 MPH (4 knots; 2.1 m/s)
Visibility: 6 or more miles (10+ km)
Ceiling: 4000 feet AGL
Clouds: broken clouds at 4000 feet AGL
overcast cloud deck at 6200 feet AGL
Weather: no significant weather observed at this time

METAR text: FMEE 151130Z AUTO 32003KT 280V350 9999 BKN041 BKN049 OVC066 29/20 Q1011 NOSIG
Conditions at: FMEE (ST. DENIS/GILLOT, FR) observed 1130 UTC 15 February 2019
Temperature: 29.0°C (84°F)
Dewpoint: 20.0°C (68°F) [RH = 58%]
Pressure (altimeter): 29.85 inches Hg (1011.0 mb)
Winds: from the NW (320 degrees) at 3 MPH (3 knots; 1.5 m/s)
Visibility: 6 or more miles (10+ km)
Ceiling: 4100 feet AGL
Clouds: broken clouds at 4100 feet AGL
broken clouds at 4900 feet AGL
overcast cloud deck at 6600 feet AGL
Weather: no significant weather observed at this time

METAR text: FMEE 151100Z AUTO 32004KT 290V010 9999 BKN038 BKN045 OVC064 29/20 Q1012 NOSIG
Conditions at: FMEE (ST. DENIS/GILLOT, FR) observed 1100 UTC 15 February 2019
Temperature: 29.0°C (84°F)
Dewpoint: 20.0°C (68°F) [RH = 58%]
Pressure (altimeter): 29.88 inches Hg (1012.0 mb)
Winds: from the NW (320 degrees) at 5 MPH (4 knots; 2.1 m/s)
Visibility: 6 or more miles (10+ km)
Ceiling: 3800 feet AGL
Clouds: broken clouds at 3800 feet AGL
broken clouds at 4500 feet AGL
overcast cloud deck at 6400 feet AGL
Weather: no significant weather observed at this time

METAR text: FMEE 151030Z AUTO 35003KT 310V020 9999 BKN044 OVC062 30/20 Q1012 NOSIG
Conditions at: FMEE (ST. DENIS/GILLOT, FR) observed 1030 UTC 15 February 2019
Temperature: 30.0°C (86°F)
Dewpoint: 20.0°C (68°F) [RH = 55%]
Pressure (altimeter): 29.88 inches Hg (1012.0 mb)
Winds: from the N (350 degrees) at 3 MPH (3 knots; 1.5 m/s)
Visibility: 6 or more miles (10+ km)
Ceiling: 4400 feet AGL
Clouds: broken clouds at 4400 feet AGL
overcast cloud deck at 6200 feet AGL
Weather: no significant weather observed at this time

METAR text: FMEE 151000Z AUTO 01005KT 9999 BKN042 BKN066 31/20 Q1012 NOSIG
Conditions at: FMEE (ST. DENIS/GILLOT, FR) observed 1000 UTC 15 February 2019
Temperature: 31.0°C (88°F)
Dewpoint: 20.0°C (68°F) [RH = 52%]
Pressure (altimeter): 29.88 inches Hg (1012.0 mb)
Winds: from the N (10 degrees) at 6 MPH (5 knots; 2.6 m/s)
Visibility: 6 or more miles (10+ km)
Ceiling: 4200 feet AGL
Clouds: broken clouds at 4200 feet AGL
broken clouds at 6600 feet AGL
Weather: no significant weather observed at this time

METAR text: FMEE 150930Z AUTO 02005KT 9999 BKN041 30/20 Q1012 NOSIG
Conditions at: FMEE (ST. DENIS/GILLOT, FR) observed 0930 UTC 15 February 2019
Temperature: 30.0°C (86°F)
Dewpoint: 20.0°C (68°F) [RH = 55%]
Pressure (altimeter): 29.88 inches Hg (1012.0 mb)
Winds: from the NNE (20 degrees) at 6 MPH (5 knots; 2.6 m/s)
Visibility: 6 or more miles (10+ km)
Ceiling: 4100 feet AGL
Clouds: broken clouds at 4100 feet AGL
Weather: no significant weather observed at this time

METAR text: FMEE 150900Z AUTO 02005KT 9999 SCT044 BKN070 BKN140 30/20 Q1013 NOSIG
Conditions at: FMEE (ST. DENIS/GILLOT, FR) observed 0900 UTC 15 February 2019
Temperature: 30.0°C (86°F)
Dewpoint: 20.0°C (68°F) [RH = 55%]
Pressure (altimeter): 29.91 inches Hg (1013.0 mb)
Winds: from the NNE (20 degrees) at 6 MPH (5 knots; 2.6 m/s)
Visibility: 6 or more miles (10+ km)
Ceiling: 7000 feet AGL
Clouds: scattered clouds at 4400 feet AGL
broken clouds at 7000 feet AGL
broken clouds at 14000 feet AGL
Weather: no significant weather observed at this time

METAR text: FMEE 150830Z AUTO 02005KT 350V050 CAVOK 31/21 Q1013 NOSIG
Conditions at: FMEE (ST. DENIS/GILLOT, FR) observed 0830 UTC 15 February 2019
Temperature: 31.0°C (88°F)
Dewpoint: 21.0°C (70°F) [RH = 55%]
Pressure (altimeter): 29.91 inches Hg (1013.0 mb)
Winds: from the NNE (20 degrees) at 6 MPH (5 knots; 2.6 m/s)
Visibility: 6 or more miles (10+ km)
Ceiling: ceiling and visibility are OK
Clouds: unknown
Weather: no significant weather observed at this time

METAR text: FMEE 150800Z AUTO 01005KT 340V040 CAVOK 30/21 Q1013 NOSIG
Conditions at: FMEE (ST. DENIS/GILLOT, FR) observed 0800 UTC 15 February 2019
Temperature: 30.0°C (86°F)
Dewpoint: 21.0°C (70°F) [RH = 59%]
Pressure (altimeter): 29.91 inches Hg (1013.0 mb)
Winds: from the N (10 degrees) at 6 MPH (5 knots; 2.6 m/s)
Visibility: 6 or more miles (10+ km)
Ceiling: ceiling and visibility are OK
Clouds: unknown
Weather: no significant weather observed at this time

METAR text: FMEE 150730Z AUTO 02005KT CAVOK 30/21 Q1013 NOSIG
Conditions at: FMEE (ST. DENIS/GILLOT, FR) observed 0730 UTC 15 February 2019
Temperature: 30.0°C (86°F)
Dewpoint: 21.0°C (70°F) [RH = 59%]
Pressure (altimeter): 29.91 inches Hg (1013.0 mb)
Winds: from the NNE (20 degrees) at 6 MPH (5 knots; 2.6 m/s)
Visibility: 6 or more miles (10+ km)
Ceiling: ceiling and visibility are OK
Clouds: unknown
Weather: no significant weather observed at this time

METAR text: FMEE 150700Z AUTO 04005KT CAVOK 30/22 Q1013 NOSIG
Conditions at: FMEE (ST. DENIS/GILLOT, FR) observed 0700 UTC 15 February 2019
Temperature: 30.0°C (86°F)
Dewpoint: 22.0°C (72°F) [RH = 62%]
Pressure (altimeter): 29.91 inches Hg (1013.0 mb)
Winds: from the NE (40 degrees) at 6 MPH (5 knots; 2.6 m/s)
Visibility: 6 or more miles (10+ km)
Ceiling: ceiling and visibility are OK
Clouds: unknown
Weather: no significant weather observed at this time

METAR text: FMEE 150630Z AUTO 05005KT 020V080 CAVOK 29/21 Q1013 NOSIG
Conditions at: FMEE (ST. DENIS/GILLOT, FR) observed 0630 UTC 15 February 2019
Temperature: 29.0°C (84°F)
Dewpoint: 21.0°C (70°F) [RH = 62%]
Pressure (altimeter): 29.91 inches Hg (1013.0 mb)
Winds: from the NE (50 degrees) at 6 MPH (5 knots; 2.6 m/s)
Visibility: 6 or more miles (10+ km)
Ceiling: ceiling and visibility are OK
Clouds: unknown
Weather: no significant weather observed at this time

METAR text: FMEE 150600Z AUTO 06005KT CAVOK 29/21 Q1013 TEMPO 36010KT
Conditions at: FMEE (ST. DENIS/GILLOT, FR) observed 0600 UTC 15 February 2019
Temperature: 29.0°C (84°F)
Dewpoint: 21.0°C (70°F) [RH = 62%]
Pressure (altimeter): 29.91 inches Hg (1013.0 mb)
Winds: from the ENE (60 degrees) at 6 MPH (5 knots; 2.6 m/s)
Visibility: 6 or more miles (10+ km)
Ceiling: ceiling and visibility are OK
Clouds: unknown
Weather: no significant weather observed at this time

METAR text: FMEE 150530Z AUTO 06005KT 020V080 CAVOK 28/20 Q1013 NOSIG
Conditions at: FMEE (ST. DENIS/GILLOT, FR) observed 0530 UTC 15 February 2019
Temperature: 28.0°C (82°F)
Dewpoint: 20.0°C (68°F) [RH = 62%]
Pressure (altimeter): 29.91 inches Hg (1013.0 mb)
Winds: from the ENE (60 degrees) at 6 MPH (5 knots; 2.6 m/s)
Visibility: 6 or more miles (10+ km)
Ceiling: ceiling and visibility are OK
Clouds: unknown
Weather: no significant weather observed at this time

METAR text: FMEE 150500Z AUTO 06003KT CAVOK 28/19 Q1013 NOSIG
Conditions at: FMEE (ST. DENIS/GILLOT, FR) observed 0500 UTC 15 February 2019
Temperature: 28.0°C (82°F)
Dewpoint: 19.0°C (66°F) [RH = 58%]
Pressure (altimeter): 29.91 inches Hg (1013.0 mb)
Winds: from the ENE (60 degrees) at 3 MPH (3 knots; 1.5 m/s)
Visibility: 6 or more miles (10+ km)
Ceiling: ceiling and visibility are OK
Clouds: unknown
Weather: no significant weather observed at this time

METAR text: FMEE 150430Z AUTO 03003KT CAVOK 28/19 Q1013 NOSIG
Conditions at: FMEE (ST. DENIS/GILLOT, FR) observed 0430 UTC 15 February 2019
Temperature: 28.0°C (82°F)
Dewpoint: 19.0°C (66°F) [RH = 58%]
Pressure (altimeter): 29.91 inches Hg (1013.0 mb)
Winds: from the NNE (30 degrees) at 3 MPH (3 knots; 1.5 m/s)
Visibility: 6 or more miles (10+ km)
Ceiling: ceiling and visibility are OK
Clouds: unknown
Weather: no significant weather observed at this time

METAR text: FMEE 150400Z AUTO 16003KT 140V200 CAVOK 26/19 Q1013 BECMG 04010KT
Conditions at: FMEE (ST. DENIS/GILLOT, FR) observed 0400 UTC 15 February 2019
Temperature: 26.0°C (79°F)
Dewpoint: 19.0°C (66°F) [RH = 65%]
Pressure (altimeter): 29.91 inches Hg (1013.0 mb)
Winds: from the SSE (160 degrees) at 3 MPH (3 knots; 1.5 m/s)
Visibility: 6 or more miles (10+ km)
Ceiling: ceiling and visibility are OK
Clouds: unknown
Weather: no significant weather observed at this time

METAR text: FMEE 150330Z AUTO 17004KT CAVOK 24/19 Q1013
Conditions at: FMEE (ST. DENIS/GILLOT, FR) observed 0330 UTC 15 February 2019
Temperature: 24.0°C (75°F)
Dewpoint: 19.0°C (66°F) [RH = 74%]
Pressure (altimeter): 29.91 inches Hg (1013.0 mb)
Winds: from the S (170 degrees) at 5 MPH (4 knots; 2.1 m/s)
Visibility: 6 or more miles (10+ km)
Ceiling: ceiling and visibility are OK
Clouds: unknown
Weather: no significant weather observed at this time

METAR text: FMEE 150300Z AUTO 17006KT CAVOK 23/19 Q1012 BECMG 04010KT
Conditions at: FMEE (ST. DENIS/GILLOT, FR) observed 0300 UTC 15 February 2019
Temperature: 23.0°C (73°F)
Dewpoint: 19.0°C (66°F) [RH = 78%]
Pressure (altimeter): 29.88 inches Hg (1012.0 mb)
Winds: from the S (170 degrees) at 7 MPH (6 knots; 3.1 m/s)
Visibility: 6 or more miles (10+ km)
Ceiling: ceiling and visibility are OK
Clouds: unknown
Weather: no significant weather observed at this time

METAR text: FMEE 150230Z AUTO 18006KT CAVOK 22/18 Q1012 BECMG 04010KT
Conditions at: FMEE (ST. DENIS/GILLOT, FR) observed 0230 UTC 15 February 2019
Temperature: 22.0°C (72°F)
Dewpoint: 18.0°C (64°F) [RH = 78%]
Pressure (altimeter): 29.88 inches Hg (1012.0 mb)
Winds: from the S (180 degrees) at 7 MPH (6 knots; 3.1 m/s)
Visibility: 6 or more miles (10+ km)
Ceiling: ceiling and visibility are OK
Clouds: unknown
Weather: no significant weather observed at this time

METAR text: FMEE 150200Z AUTO 18006KT CAVOK 22/18 Q1012 NOSIG
Conditions at: FMEE (ST. DENIS/GILLOT, FR) observed 0200 UTC 15 February 2019
Temperature: 22.0°C (72°F)
Dewpoint: 18.0°C (64°F) [RH = 78%]
Pressure (altimeter): 29.88 inches Hg (1012.0 mb)
Winds: from the S (180 degrees) at 7 MPH (6 knots; 3.1 m/s)
Visibility: 6 or more miles (10+ km)
Ceiling: ceiling and visibility are OK
Clouds: unknown
Weather: no significant weather observed at this time

METAR text: FMEE 150130Z AUTO 18005KT CAVOK 22/18 Q1012 NOSIG
Conditions at: FMEE (ST. DENIS/GILLOT, FR) observed 0130 UTC 15 February 2019
Temperature: 22.0°C (72°F)
Dewpoint: 18.0°C (64°F) [RH = 78%]
Pressure (altimeter): 29.88 inches Hg (1012.0 mb)
Winds: from the S (180 degrees) at 6 MPH (5 knots; 2.6 m/s)
Visibility: 6 or more miles (10+ km)
Ceiling: ceiling and visibility are OK
Clouds: unknown
Weather: no significant weather observed at this time

METAR text: FMEE 150100Z AUTO 18004KT CAVOK 21/18 Q1012 NOSIG
Conditions at: FMEE (ST. DENIS/GILLOT, FR) observed 0100 UTC 15 February 2019
Temperature: 21.0°C (70°F)
Dewpoint: 18.0°C (64°F) [RH = 83%]
Pressure (altimeter): 29.88 inches Hg (1012.0 mb)
Winds: from the S (180 degrees) at 5 MPH (4 knots; 2.1 m/s)
Visibility: 6 or more miles (10+ km)
Ceiling: ceiling and visibility are OK
Clouds: unknown
Weather: no significant weather observed at this time

METAR text: FMEE 150030Z AUTO 19006KT CAVOK 21/18 Q1012 NOSIG
Conditions at: FMEE (ST. DENIS/GILLOT, FR) observed 0030 UTC 15 February 2019
Temperature: 21.0°C (70°F)
Dewpoint: 18.0°C (64°F) [RH = 83%]
Pressure (altimeter): 29.88 inches Hg (1012.0 mb)
Winds: from the S (190 degrees) at 7 MPH (6 knots; 3.1 m/s)
Visibility: 6 or more miles (10+ km)
Ceiling: ceiling and visibility are OK
Clouds: unknown
Weather: no significant weather observed at this time

METAR text: FMEE 150000Z AUTO 18005KT CAVOK 21/19 Q1012 NOSIG
Conditions at: FMEE (ST. DENIS/GILLOT, FR) observed 0000 UTC 15 February 2019
Temperature: 21.0°C (70°F)
Dewpoint: 19.0°C (66°F) [RH = 88%]
Pressure (altimeter): 29.88 inches Hg (1012.0 mb)
Winds: from the S (180 degrees) at 6 MPH (5 knots; 2.6 m/s)
Visibility: 6 or more miles (10+ km)
Ceiling: ceiling and visibility are OK
Clouds: unknown
Weather: no significant weather observed at this time

METAR text: FMEE 142330Z AUTO 19004KT CAVOK 21/19 Q1012 NOSIG
Conditions at: FMEE (ST. DENIS/GILLOT, FR) observed 2330 UTC 14 February 2019
Temperature: 21.0°C (70°F)
Dewpoint: 19.0°C (66°F) [RH = 88%]
Pressure (altimeter): 29.88 inches Hg (1012.0 mb)
Winds: from the S (190 degrees) at 5 MPH (4 knots; 2.1 m/s)
Visibility: 6 or more miles (10+ km)
Ceiling: ceiling and visibility are OK
Clouds: unknown
Weather: no significant weather observed at this time

METAR text: FMEE 142300Z AUTO 18004KT CAVOK 21/18 Q1012 NOSIG
Conditions at: FMEE (ST. DENIS/GILLOT, FR) observed 2300 UTC 14 February 2019
Temperature: 21.0°C (70°F)
Dewpoint: 18.0°C (64°F) [RH = 83%]
Pressure (altimeter): 29.88 inches Hg (1012.0 mb)
Winds: from the S (180 degrees) at 5 MPH (4 knots; 2.1 m/s)
Visibility: 6 or more miles (10+ km)
Ceiling: ceiling and visibility are OK
Clouds: unknown
Weather: no significant weather observed at this time

METAR text: FMEE 142230Z AUTO 18005KT CAVOK 21/19 Q1012 NOSIG
Conditions at: FMEE (ST. DENIS/GILLOT, FR) observed 2230 UTC 14 February 2019
Temperature: 21.0°C (70°F)
Dewpoint: 19.0°C (66°F) [RH = 88%]
Pressure (altimeter): 29.88 inches Hg (1012.0 mb)
Winds: from the S (180 degrees) at 6 MPH (5 knots; 2.6 m/s)
Visibility: 6 or more miles (10+ km)
Ceiling: ceiling and visibility are OK
Clouds: unknown
Weather: no significant weather observed at this time

METAR text: FMEE 142200Z AUTO 17005KT CAVOK 22/19 Q1012 NOSIG
Conditions at: FMEE (ST. DENIS/GILLOT, FR) observed 2200 UTC 14 February 2019
Temperature: 22.0°C (72°F)
Dewpoint: 19.0°C (66°F) [RH = 83%]
Pressure (altimeter): 29.88 inches Hg (1012.0 mb)
Winds: from the S (170 degrees) at 6 MPH (5 knots; 2.6 m/s)
Visibility: 6 or more miles (10+ km)
Ceiling: ceiling and visibility are OK
Clouds: unknown
Weather: no significant weather observed at this time

METAR text: FMEE 142130Z AUTO 18006KT CAVOK 22/19 Q1013 NOSIG
Conditions at: FMEE (ST. DENIS/GILLOT, FR) observed 2130 UTC 14 February 2019
Temperature: 22.0°C (72°F)
Dewpoint: 19.0°C (66°F) [RH = 83%]
Pressure (altimeter): 29.91 inches Hg (1013.0 mb)
Winds: from the S (180 degrees) at 7 MPH (6 knots; 3.1 m/s)
Visibility: 6 or more miles (10+ km)
Ceiling: ceiling and visibility are OK
Clouds: unknown
Weather: no significant weather observed at this time

METAR text: FMEE 142100Z AUTO 18005KT CAVOK 23/19 Q1013 NOSIG
Conditions at: FMEE (ST. DENIS/GILLOT, FR) observed 2100 UTC 14 February 2019
Temperature: 23.0°C (73°F)
Dewpoint: 19.0°C (66°F) [RH = 78%]
Pressure (altimeter): 29.91 inches Hg (1013.0 mb)
Winds: from the S (180 degrees) at 6 MPH (5 knots; 2.6 m/s)
Visibility: 6 or more miles (10+ km)
Ceiling: ceiling and visibility are OK
Clouds: unknown
Weather: no significant weather observed at this time

METAR text: FMEE 142030Z AUTO 18005KT CAVOK 23/19 Q1014 NOSIG
Conditions at: FMEE (ST. DENIS/GILLOT, FR) observed 2030 UTC 14 February 2019
Temperature: 23.0°C (73°F)
Dewpoint: 19.0°C (66°F) [RH = 78%]
Pressure (altimeter): 29.94 inches Hg (1014.0 mb)
Winds: from the S (180 degrees) at 6 MPH (5 knots; 2.6 m/s)
Visibility: 6 or more miles (10+ km)
Ceiling: ceiling and visibility are OK
Clouds: unknown
Weather: no significant weather observed at this time

METAR text: FMEE 142000Z AUTO 18004KT CAVOK 23/19 Q1014 NOSIG
Conditions at: FMEE (ST. DENIS/GILLOT, FR) observed 2000 UTC 14 February 2019
Temperature: 23.0°C (73°F)
Dewpoint: 19.0°C (66°F) [RH = 78%]
Pressure (altimeter): 29.94 inches Hg (1014.0 mb)
Winds: from the S (180 degrees) at 5 MPH (4 knots; 2.1 m/s)
Visibility: 6 or more miles (10+ km)
Ceiling: ceiling and visibility are OK
Clouds: unknown
Weather: no significant weather observed at this time

METAR text: FMEE 141930Z AUTO 19004KT 150V210 CAVOK 23/20 Q1014 NOSIG
Conditions at: FMEE (ST. DENIS/GILLOT, FR) observed 1930 UTC 14 February 2019
Temperature: 23.0°C (73°F)
Dewpoint: 20.0°C (68°F) [RH = 83%]
Pressure (altimeter): 29.94 inches Hg (1014.0 mb)
Winds: from the S (190 degrees) at 5 MPH (4 knots; 2.1 m/s)
Visibility: 6 or more miles (10+ km)
Ceiling: ceiling and visibility are OK
Clouds: unknown
Weather: no significant weather observed at this time

METAR text: FMEE 141900Z AUTO 18006KT CAVOK 24/20 Q1015 NOSIG
Conditions at: FMEE (ST. DENIS/GILLOT, FR) observed 1900 UTC 14 February 2019
Temperature: 24.0°C (75°F)
Dewpoint: 20.0°C (68°F) [RH = 78%]
Pressure (altimeter): 29.97 inches Hg (1015.0 mb)
Winds: from the S (180 degrees) at 7 MPH (6 knots; 3.1 m/s)
Visibility: 6 or more miles (10+ km)
Ceiling: ceiling and visibility are OK
Clouds: unknown
Weather: no significant weather observed at this time

METAR text: FMEE 141830Z AUTO 17006KT 9999 BKN043 24/21 Q1014 NOSIG
Conditions at: FMEE (ST. DENIS/GILLOT, FR) observed 1830 UTC 14 February 2019
Temperature: 24.0°C (75°F)
Dewpoint: 21.0°C (70°F) [RH = 83%]
Pressure (altimeter): 29.94 inches Hg (1014.0 mb)
Winds: from the S (170 degrees) at 7 MPH (6 knots; 3.1 m/s)
Visibility: 6 or more miles (10+ km)
Ceiling: 4300 feet AGL
Clouds: broken clouds at 4300 feet AGL
Weather: no significant weather observed at this time

METAR text: FMEE 141800Z AUTO 15005KT 110V190 9999 BKN040 24/20 Q1014 NOSIG
Conditions at: FMEE (ST. DENIS/GILLOT, FR) observed 1800 UTC 14 February 2019
Temperature: 24.0°C (75°F)
Dewpoint: 20.0°C (68°F) [RH = 78%]
Pressure (altimeter): 29.94 inches Hg (1014.0 mb)
Winds: from the SSE (150 degrees) at 6 MPH (5 knots; 2.6 m/s)
Visibility: 6 or more miles (10+ km)
Ceiling: 4000 feet AGL
Clouds: broken clouds at 4000 feet AGL
Weather: no significant weather observed at this time

METAR text: FMEE 141730Z AUTO 18004KT 9999 SCT039 23/20 Q1014 NOSIG
Conditions at: FMEE (ST. DENIS/GILLOT, FR) observed 1730 UTC 14 February 2019
Temperature: 23.0°C (73°F)
Dewpoint: 20.0°C (68°F) [RH = 83%]
Pressure (altimeter): 29.94 inches Hg (1014.0 mb)
Winds: from the S (180 degrees) at 5 MPH (4 knots; 2.1 m/s)
Visibility: 6 or more miles (10+ km)
Ceiling: at least 12,000 feet AGL
Clouds: scattered clouds at 3900 feet AGL
Weather: no significant weather observed at this time

METAR text: FMEE 141700Z AUTO 17005KT CAVOK 24/20 Q1014 NOSIG
Conditions at: FMEE (ST. DENIS/GILLOT, FR) observed 1700 UTC 14 February 2019
Temperature: 24.0°C (75°F)
Dewpoint: 20.0°C (68°F) [RH = 78%]
Pressure (altimeter): 29.94 inches Hg (1014.0 mb)
Winds: from the S (170 degrees) at 6 MPH (5 knots; 2.6 m/s)
Visibility: 6 or more miles (10+ km)
Ceiling: ceiling and visibility are OK
Clouds: unknown
Weather: no significant weather observed at this time

METAR text: FMEE 141630Z AUTO 15003KT 9999 FEW038 23/20 Q1014 NOSIG
Conditions at: FMEE (ST. DENIS/GILLOT, FR) observed 1630 UTC 14 February 2019
Temperature: 23.0°C (73°F)
Dewpoint: 20.0°C (68°F) [RH = 83%]
Pressure (altimeter): 29.94 inches Hg (1014.0 mb)
Winds: from the SSE (150 degrees) at 3 MPH (3 knots; 1.5 m/s)
Visibility: 6 or more miles (10+ km)
Ceiling: at least 12,000 feet AGL
Clouds: few clouds at 3800 feet AGL
Weather: no significant weather observed at this time

METAR text: FMEE 141600Z AUTO 11004KT 9999 FEW036 BKN043 BKN049 24/21 Q1014 NOSIG
Conditions at: FMEE (ST. DENIS/GILLOT, FR) observed 1600 UTC 14 February 2019
Temperature: 24.0°C (75°F)
Dewpoint: 21.0°C (70°F) [RH = 83%]
Pressure (altimeter): 29.94 inches Hg (1014.0 mb)
Winds: from the ESE (110 degrees) at 5 MPH (4 knots; 2.1 m/s)
Visibility: 6 or more miles (10+ km)
Ceiling: 4300 feet AGL
Clouds: few clouds at 3600 feet AGL
broken clouds at 4300 feet AGL
broken clouds at 4900 feet AGL
Weather: no significant weather observed at this time

METAR text: FMEE 141530Z AUTO 11004KT 9999 FEW032 SCT078 24/20 Q1013 NOSIG
Conditions at: FMEE (ST. DENIS/GILLOT, FR) observed 1530 UTC 14 February 2019
Temperature: 24.0°C (75°F)
Dewpoint: 20.0°C (68°F) [RH = 78%]
Pressure (altimeter): 29.91 inches Hg (1013.0 mb)
Winds: from the ESE (110 degrees) at 5 MPH (4 knots; 2.1 m/s)
Visibility: 6 or more miles (10+ km)
Ceiling: at least 12,000 feet AGL
Clouds: few clouds at 3200 feet AGL
scattered clouds at 7800 feet AGL
Weather: no significant weather observed at this time

METAR text: FMEE 141500Z AUTO 11006KT 9999 SCT030 BKN042 25/20 Q1013 NOSIG
Conditions at: FMEE (ST. DENIS/GILLOT, FR) observed 1500 UTC 14 February 2019
Temperature: 25.0°C (77°F)
Dewpoint: 20.0°C (68°F) [RH = 74%]
Pressure (altimeter): 29.91 inches Hg (1013.0 mb)
Winds: from the ESE (110 degrees) at 7 MPH (6 knots; 3.1 m/s)
Visibility: 6 or more miles (10+ km)
Ceiling: 4200 feet AGL
Clouds: scattered clouds at 3000 feet AGL
broken clouds at 4200 feet AGL
Weather: no significant weather observed at this time

METAR text: FMEE 141430Z AUTO 11007KT 9999 BKN029 BKN040 BKN047 25/21 Q1013 NOSIG
Conditions at: FMEE (ST. DENIS/GILLOT, FR) observed 1430 UTC 14 February 2019
Temperature: 25.0°C (77°F)
Dewpoint: 21.0°C (70°F) [RH = 79%]
Pressure (altimeter): 29.91 inches Hg (1013.0 mb)
Winds: from the ESE (110 degrees) at 8 MPH (7 knots; 3.6 m/s)
Visibility: 6 or more miles (10+ km)
Ceiling: 2900 feet AGL
Clouds: broken clouds at 2900 feet AGL
broken clouds at 4000 feet AGL
broken clouds at 4700 feet AGL
Weather: no significant weather observed at this time

METAR text: FMEE 141400Z AUTO 11007KT 9999 BKN032 BKN038 OVC086 25/21 Q1012 TEMPO 4500 SHRA
Conditions at: FMEE (ST. DENIS/GILLOT, FR) observed 1400 UTC 14 February 2019
Temperature: 25.0°C (77°F)
Dewpoint: 21.0°C (70°F) [RH = 79%]
Pressure (altimeter): 29.88 inches Hg (1012.0 mb)
Winds: from the ESE (110 degrees) at 8 MPH (7 knots; 3.6 m/s)
Visibility: 6 or more miles (10+ km)
Ceiling: 3200 feet AGL
Clouds: broken clouds at 3200 feet AGL
broken clouds at 3800 feet AGL
overcast cloud deck at 8600 feet AGL
Weather: no significant weather observed at this time

METAR text: FMEE 141330Z AUTO 12009KT 9999 BKN030 OVC037 24/21 Q1012 TEMPO 4500 SHRA
Conditions at: FMEE (ST. DENIS/GILLOT, FR) observed 1330 UTC 14 February 2019
Temperature: 24.0°C (75°F)
Dewpoint: 21.0°C (70°F) [RH = 83%]
Pressure (altimeter): 29.88 inches Hg (1012.0 mb)
Winds: from the ESE (120 degrees) at 10 MPH (9 knots; 4.6 m/s)
Visibility: 6 or more miles (10+ km)
Ceiling: 3000 feet AGL
Clouds: broken clouds at 3000 feet AGL
overcast cloud deck at 3700 feet AGL
Weather: no significant weather observed at this time

METAR text: FMEE 141300Z AUTO 12012KT 9999 OVC029 24/21 Q1012 TEMPO 4500 SHRA BECMG 18006KT
Conditions at: FMEE (ST. DENIS/GILLOT, FR) observed 1300 UTC 14 February 2019
Temperature: 24.0°C (75°F)
Dewpoint: 21.0°C (70°F) [RH = 83%]
Pressure (altimeter): 29.88 inches Hg (1012.0 mb)
Winds: from the ESE (120 degrees) at 14 MPH (12 knots; 6.2 m/s)
Visibility: 6 or more miles (10+ km)
Ceiling: 2900 feet AGL
Clouds: overcast cloud deck at 2900 feet AGL
Weather: no significant weather observed at this time

METAR text: FMEE 141230Z AUTO 13010KT 100V170 7000 -RA SCT027/// OVC034/// ///TCU 24/21 Q1012 TEMPO 02012KT 4500 SHRA BECMG SCT040 SCT070
Conditions at: FMEE (ST. DENIS/GILLOT, FR) observed 1230 UTC 14 February 2019
Temperature: 24.0°C (75°F)
Dewpoint: 21.0°C (70°F) [RH = 83%]
Pressure (altimeter): 29.88 inches Hg (1012.0 mb)
Winds: from the SE (130 degrees) at 12 MPH (10 knots; 5.1 m/s)
Visibility: 4 miles ( 7 km)
Ceiling: 3400 feet AGL
Clouds: scattered clouds at 2700 feet AGL
overcast cloud deck at 3400 feet AGL
Weather: -RA  (light rain)

METAR text: FMEE 141200Z AUTO 33008KT 9999 BKN036/// BKN043/// OVC074/// ///TCU 29/20 Q1012 TEMPO 4500 SHRA BECMG SCT040 SCT070
Conditions at: FMEE (ST. DENIS/GILLOT, FR) observed 1200 UTC 14 February 2019
Temperature: 29.0°C (84°F)
Dewpoint: 20.0°C (68°F) [RH = 58%]
Pressure (altimeter): 29.88 inches Hg (1012.0 mb)
Winds: from the NNW (330 degrees) at 9 MPH (8 knots; 4.1 m/s)
Visibility: 6 or more miles (10+ km)
Ceiling: 3600 feet AGL
Clouds: broken clouds at 3600 feet AGL
broken clouds at 4300 feet AGL
overcast cloud deck at 7400 feet AGL
Weather: no significant weather observed at this time

Forecast for: FMEE (ST. DENIS/GILLOT, FR)
Text: FMEE 152300Z 1600/1706 19006KT 9999 FEW030 SCT046
Forecast period: 0000 to 0400 UTC 16 February 2019
Forecast type: FROM: standard forecast or significant change
Winds: from the S (190 degrees) at 7 MPH (6 knots; 3.1 m/s)
Visibility: 6 or more miles 10+ km)
Ceiling: at least 12,000 feet AGL
Clouds: few clouds at 3000 feet AGL
scattered clouds at 4600 feet AGL
Weather: no significant weather forecast for this period
Text: BECMG 1604/1606 08012KT
Forecast period: 0400 to 1500 UTC 16 February 2019
Forecast type: BECOMING: Conditions expected to become as follows by 0600 UTC 16 February 2019
Winds: from the E (80 degrees) at 14 MPH (12 knots; 6.2 m/s)
Visibility: 6 or more miles 10+ km)
Ceiling: at least 12,000 feet AGL
Clouds: few clouds at 3000 feet AGL
scattered clouds at 4600 feet AGL
Weather: no significant weather forecast for this period
Text: BECMG 1615/1616 16006KT
Forecast period: 1500 UTC 16 February 2019 to 0400 UTC 17 February 2019
Forecast type: BECOMING: Conditions expected to become as follows by 1600 UTC 16 February 2019
Winds: from the SSE (160 degrees) at 7 MPH (6 knots; 3.1 m/s)
Visibility: 6 or more miles 10+ km)
Ceiling: at least 12,000 feet AGL
Clouds: few clouds at 3000 feet AGL
scattered clouds at 4600 feet AGL
Weather: no significant weather forecast for this period
Text: TEMPO 1620/1704 4500 SHRA SCT026TCU
Forecast period: 2000 UTC 16 February 2019 to 0400 UTC 17 February 2019
Forecast type: TEMPORARY: The following changes expected for less than half the time period
Visibility: 2.80 miles (4.51 km)
Ceiling: at least 12,000 feet AGL
Clouds: scattered clouds at 2600 feet AGL
Weather: SHRA  (rain showers)
Text: BECMG 1704/1705 10012KT
Forecast period: 0400 to 0600 UTC 17 February 2019
Forecast type: BECOMING: Conditions expected to become as follows by 0500 UTC 17 February 2019
Winds: from the E (100 degrees) at 14 MPH (12 knots; 6.2 m/s)
Visibility: 6 or more miles 10+ km)
Ceiling: at least 12,000 feet AGL
Clouds: few clouds at 3000 feet AGL
scattered clouds at 4600 feet AGL
Weather: no significant weather forecast for this period